Time;durP1;ratioP1;P1;durP2;ratioP2;P2;SDS_P1;SDS_P2;PMS_P1;PMS_P2;Temp;Humidity;BMP_temperature;BMP_pressure;BME280_temperature;BME280_humidity;BME280_pressure;Samples;Min_cycle;Max_cycle;Signal;HPM_P1;HPM_P2
2021/12/11 00:00:39;;;;;;;4.32;1.13;;;17.50;57.10;;;;;;5091921;28;20042;-81
2021/12/11 00:03:18;;;;;;;3.92;1.20;;;17.40;57.00;;;;;;5053725;28;20094;-82
2021/12/11 00:05:49;;;;;;;4.78;1.60;;;17.40;57.70;;;;;;5072136;28;20025;-82
2021/12/11 00:08:20;;;;;;;4.65;1.65;;;17.40;57.20;;;;;;5057003;28;20039;-82
2021/12/11 00:10:52;;;;;;;4.70;1.55;;;17.40;57.20;;;;;;5089107;28;20028;-82
2021/12/11 00:13:24;;;;;;;4.88;1.50;;;17.30;57.20;;;;;;5072820;28;20023;-82
2021/12/11 00:15:50;;;;;;;5.00;1.85;;;17.30;57.30;;;;;;5072658;28;20028;-81
2021/12/11 00:18:21;;;;;;;3.22;1.13;;;17.30;57.40;;;;;;5064432;28;20048;-82
2021/12/11 00:21:00;;;;;;;3.72;1.17;;;17.20;57.30;;;;;;5072148;28;20044;-82
2021/12/11 00:23:33;;;;;;;3.72;1.40;;;17.20;57.40;;;;;;5087221;28;20020;-82
2021/12/11 00:26:00;;;;;;;6.97;1.17;;;17.20;57.40;;;;;;5091560;28;20039;-82
2021/12/11 00:28:26;;;;;;;6.55;1.85;;;17.10;57.50;;;;;;5091837;28;20024;-82
2021/12/11 00:30:52;;;;;;;5.97;1.63;;;17.10;57.50;;;;;;5091978;28;20024;-82
2021/12/11 00:33:23;;;;;;;4.28;1.38;;;17.10;57.50;;;;;;5091458;28;20099;-82
2021/12/11 00:35:51;;;;;;;7.40;1.63;;;17.10;57.60;;;;;;5073610;28;20029;-81
2021/12/11 00:38:24;;;;;;;4.75;1.30;;;17.00;57.60;;;;;;5071048;28;20024;-81
2021/12/11 00:40:51;;;;;;;5.15;1.27;;;17.00;57.60;;;;;;5071646;28;20036;-81
2021/12/11 00:43:23;;;;;;;5.35;1.50;;;17.00;57.70;;;;;;5071190;28;20020;-81
2021/12/11 00:45:50;;;;;;;4.82;1.38;;;17.00;57.70;;;;;;5071302;28;20121;-81
2021/12/11 00:48:20;;;;;;;6.05;1.83;;;16.90;57.70;;;;;;5071049;28;20079;-81
2021/12/11 00:51:06;;;;;;;3.70;1.25;;;16.90;57.70;;;;;;5071313;28;20031;-81
2021/12/11 00:53:41;;;;;;;4.95;1.55;;;16.90;57.80;;;;;;5071025;28;20877;-81
2021/12/11 00:56:16;;;;;;;3.65;1.17;;;16.90;57.80;;;;;;5071302;28;20139;-81
2021/12/11 00:58:44;;;;;;;5.82;1.35;;;16.80;57.90;;;;;;5070863;28;20027;-82
2021/12/11 01:01:18;;;;;;;5.80;1.50;;;16.80;58.90;;;;;;5071626;28;20032;-82
2021/12/11 01:03:52;;;;;;;7.07;1.88;;;16.80;59.40;;;;;;5071367;28;20028;-82
2021/12/11 01:06:26;;;;;;;3.47;1.50;;;16.80;60.10;;;;;;5052902;28;20408;-82
2021/12/11 01:08:58;;;;;;;4.78;1.58;;;16.80;61.20;;;;;;5053646;28;20388;-82
2021/12/11 01:12:00;;;;;;;6.82;1.75;;;16.80;61.10;;;;;;5080821;28;20024;-82
2021/12/11 01:14:40;;;;;;;3.90;1.08;;;16.80;61.40;;;;;;5091139;28;20121;-82
2021/12/11 01:17:07;;;;;;;5.60;1.60;;;16.80;61.60;;;;;;5091298;28;20035;-82
2021/12/11 01:19:38;;;;;;;3.30;1.40;;;16.80;61.40;;;;;;5090810;28;20407;-82
2021/12/11 01:22:19;;;;;;;4.70;1.17;;;16.80;61.10;;;;;;5090864;28;20073;-81
2021/12/11 01:24:48;;;;;;;3.85;1.25;;;16.70;61.00;;;;;;5091199;28;20031;-82
2021/12/11 01:27:23;;;;;;;3.42;1.00;;;16.70;61.00;;;;;;5084074;28;20029;-81
2021/12/11 01:29:55;;;;;;;4.93;1.23;;;16.70;61.00;;;;;;5073046;28;20391;-82
2021/12/11 01:32:22;;;;;;;6.38;1.45;;;16.70;60.90;;;;;;5087107;28;20029;-81
2021/12/11 01:34:48;;;;;;;4.18;1.42;;;16.70;60.80;;;;;;5071023;28;20394;-81
2021/12/11 01:37:15;;;;;;;4.53;1.17;;;16.70;60.80;;;;;;5070859;28;20028;-81
2021/12/11 01:39:41;;;;;;;3.28;1.63;;;16.70;61.50;;;;;;5076152;28;20366;-81
2021/12/11 01:42:16;;;;;;;3.22;1.35;;;16.70;60.70;;;;;;5077598;28;20054;-82
2021/12/11 01:44:43;;;;;;;2.85;1.10;;;16.70;60.60;;;;;;5091157;28;20056;-82
2021/12/11 01:47:16;;;;;;;6.22;1.60;;;16.70;60.60;;;;;;5090747;28;20040;-82
2021/12/11 01:49:45;;;;;;;3.67;1.10;;;16.70;60.50;;;;;;5091266;28;20055;-82
2021/12/11 01:52:37;;;;;;;4.65;1.55;;;16.60;60.30;;;;;;5090550;28;20032;-82
2021/12/11 01:55:25;;;;;;;3.92;1.30;;;16.70;60.30;;;;;;5070947;28;20439;-82
2021/12/11 01:57:53;;;;;;;3.05;1.17;;;16.60;60.20;;;;;;5071715;28;20120;-82
2021/12/11 02:00:35;;;;;;;4.22;1.33;;;16.60;60.10;;;;;;5076092;28;20054;-82
2021/12/11 02:03:05;;;;;;;5.70;1.30;;;16.60;60.00;;;;;;5090793;28;20039;-82
2021/12/11 02:05:35;;;;;;;3.35;1.38;;;16.60;60.00;;;;;;5090698;28;20024;-82
2021/12/11 02:08:07;;;;;;;5.65;1.27;;;16.60;59.90;;;;;;5090174;28;20491;-82
2021/12/11 02:10:58;;;;;;;2.97;1.02;;;16.60;59.80;;;;;;5073339;28;20103;-82
2021/12/11 02:13:39;;;;;;;3.90;0.90;;;16.70;59.90;;;;;;5076913;28;20047;-82
2021/12/11 02:16:13;;;;;;;4.15;1.50;;;16.60;59.80;;;;;;5074154;28;20492;-82
2021/12/11 02:18:44;;;;;;;5.65;1.20;;;16.60;59.80;;;;;;5080452;28;20393;-82
2021/12/11 02:21:18;;;;;;;3.67;1.23;;;16.60;59.70;;;;;;5094416;28;20032;-82
2021/12/11 02:23:44;;;;;;;6.30;1.00;;;16.60;59.70;;;;;;5087347;28;20024;-83
2021/12/11 02:26:14;;;;;;;3.78;1.08;;;16.60;59.70;;;;;;5074732;28;20037;-82
2021/12/11 02:29:02;;;;;;;4.97;1.17;;;16.60;59.70;;;;;;5074368;28;20038;-83
2021/12/11 02:31:37;;;;;;;5.18;1.58;;;16.60;59.70;;;;;;5063941;28;20072;-83
2021/12/11 02:34:18;;;;;;;4.13;1.20;;;16.60;59.80;;;;;;5075000;28;20028;-83
2021/12/11 02:36:50;;;;;;;4.10;1.10;;;16.60;59.80;;;;;;5073679;28;20056;-83
2021/12/11 02:39:30;;;;;;;5.38;1.20;;;16.60;59.80;;;;;;5078062;28;20029;-83
2021/12/11 02:42:16;;;;;;;3.45;1.10;;;16.60;59.70;;;;;;5085697;28;20118;-83
2021/12/11 02:45:20;;;;;;;3.70;1.17;;;16.60;59.60;;;;;;5074031;28;20048;-82
2021/12/11 02:47:57;;;;;;;6.35;1.17;;;16.70;59.70;;;;;;5080474;28;20503;-82
2021/12/11 02:50:32;;;;;;;3.90;1.20;;;16.60;59.50;;;;;;5093764;28;20039;-82
2021/12/11 02:53:13;;;;;;;3.57;1.23;;;16.60;59.50;;;;;;5093406;28;20032;-82
2021/12/11 02:55:41;;;;;;;4.55;1.38;;;16.60;59.40;;;;;;5082872;28;20020;-84
2021/12/11 02:58:14;;;;;;;3.35;1.00;;;16.60;59.40;;;;;;5077476;28;20050;-84
2021/12/11 03:00:48;;;;;;;3.63;1.17;;;16.60;59.50;;;;;;5089158;28;20423;-84
2021/12/11 03:03:16;;;;;;;5.28;1.17;;;16.60;59.40;;;;;;5073177;28;20494;-84
2021/12/11 03:05:58;;;;;;;2.35;0.88;;;16.60;59.40;;;;;;5073289;28;20366;-84
2021/12/11 03:08:24;;;;;;;5.50;1.30;;;16.60;59.40;;;;;;5084337;28;20082;-84
2021/12/11 03:10:56;;;;;;;3.83;1.50;;;16.60;59.40;;;;;;5073172;28;20035;-84
2021/12/11 03:13:23;;;;;;;4.45;0.98;;;16.60;59.30;;;;;;5076618;28;20029;-84
2021/12/11 03:15:50;;;;;;;4.88;0.98;;;16.60;59.90;;;;;;5073271;28;20524;-84
2021/12/11 03:18:17;;;;;;;4.13;1.10;;;16.60;59.30;;;;;;5072794;28;20082;-84
2021/12/11 03:20:44;;;;;;;3.38;1.15;;;16.70;59.30;;;;;;5072996;28;20111;-84
2021/12/11 03:23:11;;;;;;;4.47;1.10;;;16.60;59.20;;;;;;5082614;28;20032;-84
2021/12/11 03:25:39;;;;;;;5.72;1.52;;;16.60;59.20;;;;;;5088910;28;20408;-84
2021/12/11 03:28:08;;;;;;;2.58;0.80;;;16.70;59.30;;;;;;5089323;28;20036;-84
2021/12/11 03:30:40;;;;;;;3.25;1.17;;;16.70;59.20;;;;;;5074760;28;20384;-83
2021/12/11 03:33:17;;;;;;;3.97;1.30;;;16.70;59.10;;;;;;5060527;28;20439;-84
2021/12/11 03:35:45;;;;;;;4.45;1.00;;;16.70;59.10;;;;;;5072833;28;20501;-84
2021/12/11 03:38:11;;;;;;;3.13;1.00;;;16.70;59.10;;;;;;5073079;28;20452;-84
2021/12/11 03:40:38;;;;;;;2.95;1.05;;;16.70;59.00;;;;;;5091598;28;20028;-84
2021/12/11 03:43:08;;;;;;;5.10;0.98;;;16.70;59.00;;;;;;5064597;28;20035;-84
2021/12/11 03:45:37;;;;;;;3.42;1.10;;;16.70;59.00;;;;;;5082126;28;20025;-84
2021/12/11 03:48:09;;;;;;;4.55;1.70;;;16.70;58.90;;;;;;5072409;28;20036;-84
2021/12/11 03:50:36;;;;;;;4.35;1.20;;;16.70;58.90;;;;;;5072199;28;20411;-84
2021/12/11 03:53:03;;;;;;;6.13;1.45;;;16.70;58.80;;;;;;5072374;28;20031;-84
2021/12/11 03:55:36;;;;;;;4.15;1.25;;;16.70;58.80;;;;;;5072177;28;20029;-84
2021/12/11 03:58:03;;;;;;;3.33;0.98;;;16.70;58.80;;;;;;5074174;28;20390;-84
2021/12/11 04:00:37;;;;;;;3.63;1.00;;;16.70;58.80;;;;;;5086849;28;20024;-84
2021/12/11 04:03:05;;;;;;;3.75;1.00;;;16.60;58.70;;;;;;5089308;28;20040;-84
2021/12/11 04:05:35;;;;;;;5.82;1.20;;;16.70;58.80;;;;;;5071619;28;20540;-84
2021/12/11 04:08:05;;;;;;;3.92;0.90;;;16.70;58.70;;;;;;5073133;28;20028;-84
2021/12/11 04:10:30;;;;;;;4.43;1.27;;;16.70;59.20;;;;;;5087862;28;20436;-84
2021/12/11 04:13:00;;;;;;;3.97;1.00;;;16.70;58.60;;;;;;5077103;28;20052;-84
2021/12/11 04:15:26;;;;;;;5.22;1.92;;;16.70;58.60;;;;;;5074119;28;20384;-83
2021/12/11 04:17:54;;;;;;;3.75;0.80;;;16.70;58.60;;;;;;5092324;28;20020;-83
2021/12/11 04:20:22;;;;;;;3.85;0.90;;;16.70;58.60;;;;;;5088473;28;20130;-83
2021/12/11 04:22:48;;;;;;;3.85;1.17;;;16.70;58.50;;;;;;5079409;28;20056;-83
2021/12/11 04:25:17;;;;;;;3.28;1.20;;;16.70;58.50;;;;;;5091944;28;20380;-83
2021/12/11 04:27:43;;;;;;;2.30;0.98;;;16.70;58.50;;;;;;5090039;28;20580;-83
2021/12/11 04:30:14;;;;;;;4.32;0.95;;;16.70;58.50;;;;;;5092350;28;20059;-83
2021/12/11 04:32:40;;;;;;;4.00;1.15;;;16.80;58.60;;;;;;5092065;28;20031;-84
2021/12/11 04:35:08;;;;;;;3.05;1.10;;;16.70;58.50;;;;;;5091399;28;20020;-84
2021/12/11 04:37:36;;;;;;;3.17;1.00;;;16.70;58.50;;;;;;5089302;28;20464;-83
2021/12/11 04:40:10;;;;;;;2.78;0.95;;;16.80;58.50;;;;;;5081068;28;20085;-84
2021/12/11 04:42:52;;;;;;;5.90;1.45;;;16.80;58.50;;;;;;5083088;28;20028;-84
2021/12/11 04:45:26;;;;;;;3.17;1.02;;;16.70;58.50;;;;;;5071163;28;20020;-83
2021/12/11 04:47:55;;;;;;;4.07;1.00;;;16.70;58.50;;;;;;5078576;28;20027;-84
2021/12/11 04:50:39;;;;;;;5.20;1.52;;;16.70;58.50;;;;;;5087064;28;20093;-84
2021/12/11 04:53:19;;;;;;;3.65;0.80;;;16.80;58.50;;;;;;5071417;28;20024;-84
2021/12/11 05:12:11;;;;;;;3.78;1.10;;;16.70;58.20;;;;;;5084886;28;20040;-84
2021/12/11 05:14:38;;;;;;;4.85;1.42;;;16.70;58.20;;;;;;5071540;28;20121;-84
2021/12/11 05:17:05;;;;;;;3.92;1.00;;;16.80;58.30;;;;;;5081104;28;20032;-85
2021/12/11 05:19:31;;;;;;;3.95;0.93;;;16.70;58.20;;;;;;5091094;28;20399;-83
2021/12/11 05:21:57;;;;;;;4.70;1.00;;;16.70;58.20;;;;;;5090803;28;20111;-83
2021/12/11 05:24:22;;;;;;;3.13;0.95;;;16.80;58.20;;;;;;5091116;28;20115;-83
2021/12/11 05:26:48;;;;;;;5.32;0.90;;;16.70;58.20;;;;;;5080565;28;20489;-84
2021/12/11 05:29:14;;;;;;;4.57;1.25;;;16.70;58.20;;;;;;5071793;28;20027;-84
2021/12/11 05:31:40;;;;;;;3.28;1.10;;;16.70;58.20;;;;;;5070876;28;20032;-83
2021/12/11 05:34:07;;;;;;;3.65;1.05;;;16.80;58.20;;;;;;5081121;28;20538;-84
2021/12/11 05:36:35;;;;;;;5.20;1.02;;;16.80;58.20;;;;;;5066329;28;20408;-84
2021/12/11 05:39:06;;;;;;;4.38;0.90;;;16.70;58.10;;;;;;5085839;28;20016;-84
2021/12/11 05:41:32;;;;;;;3.47;1.23;;;16.80;58.10;;;;;;5076892;28;20040;-84
2021/12/11 05:43:58;;;;;;;3.78;1.02;;;16.80;58.10;;;;;;5091258;28;20021;-85
2021/12/11 05:46:24;;;;;;;1.63;0.80;;;16.80;58.10;;;;;;5094368;28;20380;-84
2021/12/11 05:48:52;;;;;;;3.75;1.10;;;16.70;58.10;;;;;;5095116;28;20016;-84
2021/12/11 05:51:21;;;;;;;3.55;1.20;;;16.80;58.10;;;;;;5090476;28;20020;-84
2021/12/11 05:53:49;;;;;;;2.78;1.10;;;16.80;58.00;;;;;;5082210;28;20068;-84
2021/12/11 05:56:15;;;;;;;2.75;1.00;;;16.70;58.00;;;;;;5094124;28;20028;-84
2021/12/11 06:01:33;;;;;;;3.92;1.08;;;16.70;57.90;;;;;;5092588;28;20126;-83
2021/12/11 06:04:02;;;;;;;2.88;0.85;;;16.70;57.90;;;;;;5094894;28;20387;-84
2021/12/11 06:06:28;;;;;;;5.05;1.20;;;16.70;57.80;;;;;;5092579;28;20020;-83
2021/12/11 06:08:54;;;;;;;2.45;1.05;;;16.70;57.80;;;;;;5075787;28;20020;-82
2021/12/11 06:11:19;;;;;;;5.45;1.13;;;16.70;57.80;;;;;;5084690;28;20484;-83
2021/12/11 06:13:45;;;;;;;6.50;1.30;;;16.70;57.80;;;;;;5094595;28;20391;-83
2021/12/11 06:16:11;;;;;;;4.82;1.23;;;16.70;57.80;;;;;;5091390;28;20047;-84
2021/12/11 06:18:37;;;;;;;4.60;1.10;;;16.70;57.80;;;;;;5074622;28;20017;-84
2021/12/11 06:21:04;;;;;;;3.22;1.17;;;16.70;57.80;;;;;;5081011;28;20496;-83
2021/12/11 06:23:30;;;;;;;3.70;1.20;;;16.80;57.80;;;;;;5094272;28;20034;-83
2021/12/11 06:25:56;;;;;;;3.95;1.13;;;16.70;57.80;;;;;;5092649;28;20063;-82
2021/12/11 06:28:24;;;;;;;2.72;1.02;;;16.70;57.80;;;;;;5090379;28;20083;-84
2021/12/11 06:30:50;;;;;;;4.30;1.10;;;16.70;57.80;;;;;;5092557;28;20372;-83
2021/12/11 06:33:15;;;;;;;4.90;1.25;;;16.70;57.80;;;;;;5089640;28;20020;-84
2021/12/11 06:35:52;;;;;;;3.13;1.15;;;16.70;57.70;;;;;;5074108;28;20089;-84
2021/12/11 06:38:22;;;;;;;4.20;0.93;;;16.70;57.70;;;;;;5088499;28;20053;-83
2021/12/11 06:40:48;;;;;;;4.57;1.23;;;16.70;57.70;;;;;;5086472;28;20051;-83
2021/12/11 06:43:14;;;;;;;6.43;1.30;;;16.70;57.70;;;;;;5091583;28;20024;-83
2021/12/11 06:45:41;;;;;;;3.30;0.88;;;16.70;57.60;;;;;;5091043;28;20028;-84
2021/12/11 06:48:06;;;;;;;4.72;1.13;;;16.70;57.60;;;;;;5092062;28;20495;-83
2021/12/11 06:50:32;;;;;;;2.67;0.80;;;16.70;57.60;;;;;;5091140;28;20032;-83
2021/12/11 06:53:01;;;;;;;2.60;0.80;;;16.70;57.60;;;;;;5075311;28;20016;-83
2021/12/11 06:55:27;;;;;;;6.07;1.50;;;16.70;57.60;;;;;;5073300;28;20078;-83
2021/12/11 06:57:53;;;;;;;2.58;0.80;;;16.70;57.50;;;;;;5076627;28;20145;-84
2021/12/11 07:00:21;;;;;;;4.03;1.30;;;16.70;57.50;;;;;;5078031;28;20028;-83
2021/12/11 07:02:47;;;;;;;1.88;0.82;;;16.70;57.50;;;;;;5093792;28;20376;-84
2021/12/11 07:05:13;;;;;;;4.30;1.30;;;16.70;57.50;;;;;;5091446;28;20027;-84
2021/12/11 07:07:41;;;;;;;4.68;1.20;;;16.70;57.50;;;;;;5082181;28;20032;-83
2021/12/11 07:10:11;;;;;;;5.82;1.42;;;16.70;57.50;;;;;;5078050;28;20077;-83
2021/12/11 07:12:37;;;;;;;4.65;1.30;;;16.70;57.50;;;;;;5075001;28;20501;-83
2021/12/11 07:15:05;;;;;;;4.22;1.15;;;16.70;57.50;;;;;;5076014;28;20119;-84
2021/12/11 07:17:32;;;;;;;6.07;1.10;;;16.70;58.00;;;;;;5072890;28;20391;-84
2021/12/11 07:19:57;;;;;;;5.18;1.95;;;16.70;57.50;;;;;;5080099;28;20032;-83
2021/12/11 07:22:23;;;;;;;4.63;1.52;;;16.70;57.50;;;;;;5085487;28;20032;-84
2021/12/11 07:24:54;;;;;;;2.95;1.00;;;16.70;57.50;;;;;;5073123;28;20098;-83
2021/12/11 07:27:20;;;;;;;2.92;0.93;;;16.70;57.40;;;;;;5082576;28;20040;-83
2021/12/11 07:29:46;;;;;;;2.83;1.13;;;16.70;57.40;;;;;;5092616;28;20553;-82
2021/12/11 07:32:12;;;;;;;2.97;0.93;;;16.70;57.40;;;;;;5074110;28;20108;-83
2021/12/11 07:34:39;;;;;;;1.90;0.90;;;16.70;57.40;;;;;;5077729;28;20039;-84
2021/12/11 07:37:05;;;;;;;4.72;1.40;;;16.80;57.40;;;;;;5081829;28;20029;-83
2021/12/11 07:39:31;;;;;;;4.30;1.40;;;16.70;57.40;;;;;;5072566;28;20115;-83
2021/12/11 07:41:58;;;;;;;3.55;0.95;;;16.80;57.40;;;;;;5072444;28;20028;-83
2021/12/11 07:44:25;;;;;;;3.90;1.23;;;16.80;57.30;;;;;;5072276;28;20028;-83
2021/12/11 07:46:52;;;;;;;3.97;1.38;;;16.70;57.30;;;;;;5072465;28;20519;-84
2021/12/11 07:49:18;;;;;;;3.55;1.20;;;16.80;57.30;;;;;;5073612;28;20021;-83
2021/12/11 07:51:43;;;;;;;4.03;1.52;;;16.80;57.30;;;;;;5092524;28;20028;-84
2021/12/11 07:54:10;;;;;;;4.30;1.05;;;16.80;57.30;;;;;;5092959;28;20020;-84
2021/12/11 07:56:36;;;;;;;3.83;1.40;;;16.80;57.30;;;;;;5092183;28;20401;-84
2021/12/11 07:59:05;;;;;;;5.30;1.63;;;16.80;57.30;;;;;;5092498;28;20109;-84
2021/12/11 08:01:33;;;;;;;4.47;1.25;;;16.80;57.30;;;;;;5090022;28;20398;-83
2021/12/11 08:04:01;;;;;;;4.97;1.35;;;16.90;57.40;;;;;;5092432;28;20024;-84
2021/12/11 08:06:29;;;;;;;3.05;1.45;;;16.90;57.40;;;;;;5091566;28;20438;-82
2021/12/11 08:08:56;;;;;;;4.20;1.77;;;16.90;57.30;;;;;;5091423;28;20539;-84
2021/12/11 08:11:22;;;;;;;4.72;1.73;;;16.90;57.20;;;;;;5092162;28;20430;-85
2021/12/11 08:13:50;;;;;;;3.65;1.00;;;16.90;57.20;;;;;;5087971;28;20107;-83
2021/12/11 08:16:21;;;;;;;5.32;1.33;;;16.90;57.10;;;;;;5074102;28;20028;-84
2021/12/11 08:18:47;;;;;;;3.85;1.30;;;16.90;57.10;;;;;;5076715;28;20110;-84
2021/12/11 08:21:13;;;;;;;3.97;1.27;;;16.90;57.10;;;;;;5084378;28;20521;-84
2021/12/11 08:23:44;;;;;;;2.83;1.20;;;16.90;57.00;;;;;;5072236;28;20499;-83
2021/12/11 08:26:15;;;;;;;5.22;1.83;;;16.90;57.00;;;;;;5071796;28;20078;-83
2021/12/11 08:28:41;;;;;;;4.95;1.48;;;17.00;57.10;;;;;;5072068;28;20400;-81
2021/12/11 08:31:06;;;;;;;3.22;1.05;;;17.00;57.10;;;;;;5071868;28;20027;-82
2021/12/11 08:33:32;;;;;;;2.78;1.27;;;16.90;57.00;;;;;;5071411;28;20033;-82
2021/12/11 08:36:00;;;;;;;4.18;1.85;;;16.90;57.10;;;;;;5081800;28;20534;-82
2021/12/11 08:38:27;;;;;;;6.15;1.50;;;16.90;57.50;;;;;;5091412;28;20110;-80
2021/12/11 08:40:56;;;;;;;4.80;1.58;;;17.00;57.00;;;;;;5088340;28;20070;-80
2021/12/11 08:43:24;;;;;;;3.90;1.45;;;17.00;57.00;;;;;;5091594;28;20496;-81
2021/12/11 08:46:22;;;;;;;3.70;1.17;;;17.00;57.00;;;;;;5091529;28;20036;-81
2021/12/11 08:48:46;;;;;;;4.35;1.23;;;17.00;57.00;;;;;;5087391;28;20032;-82
2021/12/11 08:51:21;;;;;;;5.07;1.40;;;17.00;57.00;;;;;;5075909;28;20056;-80
2021/12/11 08:53:50;;;;;;;5.05;1.73;;;17.00;57.00;;;;;;5077170;28;20036;-83
2021/12/11 08:56:16;;;;;;;5.85;1.20;;;17.00;57.10;;;;;;5076426;28;20035;-83
2021/12/11 08:58:44;;;;;;;7.25;1.27;;;17.00;57.10;;;;;;5071500;28;20017;-83
2021/12/11 09:01:26;;;;;;;5.00;1.55;;;17.00;57.10;;;;;;5071837;28;20376;-83
2021/12/11 09:04:04;;;;;;;5.28;1.30;;;17.00;57.10;;;;;;5085102;28;20032;-79
2021/12/11 09:06:45;;;;;;;5.28;1.80;;;17.00;57.10;;;;;;5083391;28;20078;-80
2021/12/11 09:09:24;;;;;;;9.18;3.05;;;17.20;57.10;;;;;;5086052;28;20032;-81
2021/12/11 09:11:56;;;;;;;18.15;3.47;;;17.30;57.10;;;;;;5079662;28;20031;-80
2021/12/11 09:14:30;;;;;;;7.75;3.05;;;17.40;57.10;;;;;;5070967;28;20443;-80
2021/12/11 09:17:20;;;;;;;7.47;3.28;;;17.40;57.10;;;;;;5077367;28;20472;-81
2021/12/11 09:19:49;;;;;;;6.50;2.65;;;17.50;57.10;;;;;;5052392;28;20450;-82
2021/12/11 09:22:30;;;;;;;6.00;2.45;;;17.50;57.00;;;;;;5075943;28;20444;-79
2021/12/11 09:25:25;;;;;;;7.97;2.35;;;17.50;57.00;;;;;;5071173;28;20061;-80
2021/12/11 09:27:59;;;;;;;7.00;2.00;;;17.60;57.10;;;;;;5028786;28;20119;-79
2021/12/11 09:30:37;;;;;;;6.22;2.42;;;17.60;57.20;;;;;;5071263;28;20565;-79
2021/12/11 09:33:08;;;;;;;4.90;2.05;;;17.60;57.30;;;;;;5076566;28;20115;-78
2021/12/11 09:35:34;;;;;;;5.90;2.08;;;17.60;57.30;;;;;;5070706;28;20021;-79
2021/12/11 09:38:18;;;;;;;5.35;1.77;;;17.60;57.30;;;;;;5070982;28;20039;-79
2021/12/11 09:40:43;;;;;;;7.45;2.30;;;17.60;57.40;;;;;;5070962;28;20491;-81
2021/12/11 09:43:27;;;;;;;4.28;1.92;;;17.60;58.90;;;;;;5071440;28;20107;-83
2021/12/11 09:45:53;;;;;;;6.75;2.15;;;17.70;60.10;;;;;;5076512;28;20032;-79
2021/12/11 09:48:19;;;;;;;7.70;1.95;;;17.70;59.30;;;;;;5076727;28;20404;-81
2021/12/11 09:50:56;;;;;;;5.72;2.10;;;17.70;58.20;;;;;;5070986;28;20024;-78
2021/12/11 09:53:26;;;;;;;5.00;1.98;;;17.70;57.90;;;;;;5090842;28;20377;-82
2021/12/11 09:55:52;;;;;;;4.22;1.73;;;17.70;57.80;;;;;;5090897;28;20028;-78
2021/12/11 09:58:26;;;;;;;4.97;2.15;;;17.80;57.70;;;;;;5090581;28;20491;-77
2021/12/11 10:00:58;;;;;;;7.57;2.67;;;17.90;57.50;;;;;;5090392;28;20051;-77
2021/12/11 10:03:29;;;;;;;7.22;2.10;;;18.00;57.50;;;;;;5073926;28;20556;-78
2021/12/11 10:06:10;;;;;;;6.25;2.60;;;18.20;57.80;;;;;;5073909;28;20031;-79
2021/12/11 10:08:38;;;;;;;9.55;3.08;;;18.30;58.00;;;;;;5087890;28;20067;-79
2021/12/11 10:11:07;;;;;;;5.95;2.30;;;18.30;58.00;;;;;;5086314;28;20039;-79
2021/12/11 10:13:36;;;;;;;2.95;1.52;;;18.40;57.80;;;;;;5076817;28;20579;-79
2021/12/11 10:16:03;;;;;;;4.75;1.95;;;18.50;57.80;;;;;;5070260;28;20024;-78
2021/12/11 10:18:30;;;;;;;6.63;2.60;;;18.50;57.80;;;;;;5090472;28;20028;-79
2021/12/11 10:21:11;;;;;;;7.63;2.25;;;18.60;57.70;;;;;;5084200;28;20071;-79
2021/12/11 10:23:39;;;;;;;6.00;2.05;;;18.70;57.70;;;;;;5070588;28;20470;-79
2021/12/11 10:26:10;;;;;;;8.90;2.42;;;18.80;57.90;;;;;;5081104;28;20031;-78
2021/12/11 10:28:39;;;;;;;10.55;2.40;;;18.80;57.80;;;;;;5090446;28;20020;-77
2021/12/11 10:31:09;;;;;;;9.18;1.90;;;18.90;58.00;;;;;;5086011;28;20024;-76
2021/12/11 10:33:36;;;;;;;8.15;2.20;;;19.00;58.10;;;;;;5074077;28;20040;-77
2021/12/11 10:36:07;;;;;;;7.93;2.40;;;19.10;58.30;;;;;;5081055;28;20924;-77
2021/12/11 10:38:34;;;;;;;4.90;2.05;;;19.10;58.40;;;;;;5093896;28;20025;-77
2021/12/11 10:41:02;;;;;;;6.38;2.00;;;19.20;58.30;;;;;;5087621;28;20035;-77
2021/12/11 10:43:34;;;;;;;9.48;1.90;;;19.30;58.00;;;;;;5087315;28;20024;-77
2021/12/11 10:46:01;;;;;;;9.25;2.67;;;;;;;;;;5084220;28;20107;-77
2021/12/11 10:48:30;;;;;;;8.00;1.95;;;;;;;;;;5073802;28;20037;-78
2021/12/11 10:51:01;;;;;;;11.55;2.38;;;;;;;;;;5073403;28;20020;-77
2021/12/11 10:53:29;;;;;;;11.40;2.63;;;;;;;;;;5073482;28;20028;-78
2021/12/11 10:55:56;;;;;;;9.88;2.35;;;;;;;;;;5073605;28;20052;-77
2021/12/11 10:58:24;;;;;;;8.43;2.42;;;;;;;;;;5079687;28;20073;-76
2021/12/11 11:00:55;;;;;;;9.10;2.33;;;;;;;;;;5081898;28;20032;-78
2021/12/11 11:03:21;;;;;;;9.65;2.65;;;;;;;;;;5084962;28;20031;-78
2021/12/11 11:05:48;;;;;;;7.15;2.28;;;;;;;;;;5088404;28;20025;-78
2021/12/11 11:08:15;;;;;;;8.27;1.75;;;20.20;55.80;;;;;;5074810;28;20078;-77
2021/12/11 11:10:47;;;;;;;13.80;2.60;;;20.30;56.50;;;;;;5093216;28;20016;-78
2021/12/11 11:13:15;;;;;;;5.88;1.92;;;20.30;57.20;;;;;;5093488;28;20494;-78
2021/12/11 11:15:43;;;;;;;7.53;2.22;;;20.40;56.50;;;;;;5093934;28;20414;-78
2021/12/11 11:18:11;;;;;;;5.68;1.67;;;20.50;56.60;;;;;;5091922;28;20051;-79
2021/12/11 11:20:43;;;;;;;9.63;2.55;;;20.70;56.40;;;;;;5093705;28;20028;-78
2021/12/11 11:23:09;;;;;;;4.88;1.80;;;21.10;55.40;;;;;;5077243;28;20039;-78
2021/12/11 11:25:41;;;;;;;6.72;2.50;;;21.40;55.00;;;;;;5083556;28;20028;-79
2021/12/11 11:28:11;;;;;;;7.97;2.08;;;21.40;55.00;;;;;;5072921;28;20025;-79
2021/12/11 11:30:41;;;;;;;8.02;2.30;;;21.50;55.00;;;;;;5072826;28;20054;-80
2021/12/11 11:33:09;;;;;;;7.97;1.80;;;21.60;54.80;;;;;;5080412;28;20387;-79
2021/12/11 11:35:42;;;;;;;8.77;2.38;;;21.60;54.50;;;;;;5092234;28;20024;-79
2021/12/11 11:38:13;;;;;;;5.22;1.88;;;21.70;54.00;;;;;;5076716;28;20036;-81
2021/12/11 11:40:42;;;;;;;5.93;2.60;;;21.90;54.00;;;;;;5079703;28;20447;-79
2021/12/11 11:43:09;;;;;;;5.63;2.30;;;22.10;53.70;;;;;;5081058;28;20024;-79
2021/12/11 11:45:36;;;;;;;4.35;1.75;;;22.20;53.00;;;;;;5092405;28;20028;-79
2021/12/11 11:48:02;;;;;;;5.75;1.88;;;22.50;52.30;;;;;;5084810;28;20396;-79
2021/12/11 11:50:33;;;;;;;7.80;2.10;;;22.40;52.20;;;;;;5092271;28;20024;-79
2021/12/11 11:52:59;;;;;;;4.68;1.88;;;22.30;52.50;;;;;;5092313;28;20515;-79
2021/12/11 11:55:29;;;;;;;3.67;1.27;;;22.10;52.70;;;;;;5091871;28;20047;-78
2021/12/11 11:57:57;;;;;;;5.53;2.28;;;22.00;52.70;;;;;;5092668;28;20021;-77
2021/12/11 12:00:30;;;;;;;6.82;2.05;;;22.00;52.80;;;;;;5077341;28;20119;-78
2021/12/11 12:02:57;;;;;;;4.25;1.60;;;21.90;52.90;;;;;;5072104;28;20049;-79
2021/12/11 12:05:27;;;;;;;6.95;2.00;;;21.90;53.30;;;;;;5074882;28;20035;-79
2021/12/11 12:07:52;;;;;;;4.25;1.58;;;21.90;53.20;;;;;;5079642;28;20500;-79
2021/12/11 12:10:25;;;;;;;5.90;1.55;;;21.80;53.30;;;;;;5071915;28;20024;-79
2021/12/11 12:12:51;;;;;;;3.65;1.50;;;22.00;53.10;;;;;;5077767;28;20024;-78
2021/12/11 12:15:21;;;;;;;7.88;2.30;;;22.30;52.40;;;;;;5071821;28;20020;-78
2021/12/11 12:17:47;;;;;;;5.00;1.85;;;22.70;51.50;;;;;;5071916;28;20035;-79
2021/12/11 12:20:16;;;;;;;7.57;1.83;;;23.00;51.30;;;;;;5072491;28;20020;-78
2021/12/11 12:22:43;;;;;;;4.68;1.85;;;23.00;50.90;;;;;;5079713;28;20021;-78
2021/12/11 12:25:09;;;;;;;9.27;1.90;;;23.10;50.90;;;;;;5071981;28;20032;-79
2021/12/11 12:27:37;;;;;;;7.95;2.10;;;22.90;50.90;;;;;;5071361;28;20033;-79
2021/12/11 12:30:18;;;;;;;4.13;1.58;;;22.60;51.60;;;;;;5071794;28;20093;-81
2021/12/11 12:32:45;;;;;;;7.97;1.50;;;22.40;51.90;;;;;;5062194;28;20113;-79
2021/12/11 12:35:14;;;;;;;4.18;1.38;;;22.30;52.30;;;;;;5091866;28;20020;-79
2021/12/11 12:37:40;;;;;;;4.60;1.55;;;22.10;52.40;;;;;;5079088;28;20447;-81
2021/12/11 12:40:14;;;;;;;3.70;1.25;;;22.00;52.50;;;;;;5071619;28;20488;-80
2021/12/11 12:42:52;;;;;;;4.10;1.40;;;21.90;52.80;;;;;;5073485;28;20046;-82
2021/12/11 12:45:29;;;;;;;4.65;1.75;;;21.80;53.40;;;;;;5090909;28;20395;-81
2021/12/11 12:47:59;;;;;;;5.30;2.03;;;21.70;52.90;;;;;;5091876;28;20036;-81
2021/12/11 12:50:58;;;;;;;4.90;1.75;;;21.70;53.10;;;;;;5088724;28;20483;-81
2021/12/11 12:53:26;;;;;;;5.03;1.70;;;21.60;53.00;;;;;;5071375;28;20037;-80
2021/12/11 12:55:57;;;;;;;3.75;1.73;;;21.60;53.20;;;;;;5071666;28;20028;-81
2021/12/11 12:58:46;;;;;;;4.80;1.58;;;21.50;53.00;;;;;;5071245;28;20404;-81
2021/12/11 13:01:23;;;;;;;4.03;1.70;;;21.40;53.50;;;;;;5070901;28;20031;-81
2021/12/11 13:03:51;;;;;;;6.57;1.73;;;21.20;53.10;;;;;;5071346;28;20054;-81
2021/12/11 13:06:23;;;;;;;4.53;1.73;;;21.20;53.30;;;;;;5070727;28;20064;-81
2021/12/11 13:08:55;;;;;;;5.88;1.80;;;21.20;53.30;;;;;;5071375;28;20553;-81
2021/12/11 13:11:35;;;;;;;6.43;1.85;;;21.10;53.30;;;;;;5052913;28;20021;-81
2021/12/11 13:14:01;;;;;;;7.05;2.03;;;21.10;53.40;;;;;;5071270;28;20033;-81
2021/12/11 13:16:36;;;;;;;4.45;1.20;;;21.00;53.30;;;;;;5070881;28;20016;-81
2021/12/11 13:19:19;;;;;;;4.03;1.77;;;20.90;53.50;;;;;;5071090;28;20448;-81
2021/12/11 13:22:09;;;;;;;5.43;1.60;;;20.70;53.50;;;;;;5077207;28;20060;-81
2021/12/11 13:24:37;;;;;;;5.82;1.90;;;20.60;53.80;;;;;;5091277;28;20024;-81
2021/12/11 13:27:09;;;;;;;6.47;1.25;;;20.50;53.80;;;;;;5091303;28;20476;-81